sensor_id;sensor_type;location;lat;lon;timestamp;P1;durP1;ratioP1;P2;durP2;ratioP2
17917;SDS011;9084;50.956;3.106;2022-09-12T00:01:03;8.73;;;7.93;;
17917;SDS011;9084;50.956;3.106;2022-09-12T00:03:36;8.80;;;7.97;;
17917;SDS011;9084;50.956;3.106;2022-09-12T00:06:06;8.40;;;7.60;;
17917;SDS011;9084;50.956;3.106;2022-09-12T00:08:41;9.15;;;8.25;;
17917;SDS011;9084;50.956;3.106;2022-09-12T00:11:07;8.27;;;7.57;;
17917;SDS011;9084;50.956;3.106;2022-09-12T00:13:38;9.02;;;7.95;;
17917;SDS011;9084;50.956;3.106;2022-09-12T00:16:05;8.88;;;8.07;;
17917;SDS011;9084;50.956;3.106;2022-09-12T00:18:33;8.93;;;8.23;;
17917;SDS011;9084;50.956;3.106;2022-09-12T00:21:02;8.93;;;8.15;;
17917;SDS011;9084;50.956;3.106;2022-09-12T00:23:29;9.05;;;8.15;;
17917;SDS011;9084;50.956;3.106;2022-09-12T00:25:55;9.48;;;8.57;;
17917;SDS011;9084;50.956;3.106;2022-09-12T00:28:21;8.70;;;8.05;;
17917;SDS011;9084;50.956;3.106;2022-09-12T00:30:47;8.23;;;7.55;;
17917;SDS011;9084;50.956;3.106;2022-09-12T00:33:15;11.60;;;9.10;;
17917;SDS011;9084;50.956;3.106;2022-09-12T00:35:45;9.10;;;8.38;;
17917;SDS011;9084;50.956;3.106;2022-09-12T00:38:14;9.10;;;8.30;;
17917;SDS011;9084;50.956;3.106;2022-09-12T00:40:41;8.32;;;7.70;;
17917;SDS011;9084;50.956;3.106;2022-09-12T00:43:11;8.35;;;7.65;;
17917;SDS011;9084;50.956;3.106;2022-09-12T00:45:59;9.40;;;8.70;;
17917;SDS011;9084;50.956;3.106;2022-09-12T00:48:34;9.48;;;8.50;;
17917;SDS011;9084;50.956;3.106;2022-09-12T00:51:06;9.13;;;8.43;;
17917;SDS011;9084;50.956;3.106;2022-09-12T00:53:34;8.90;;;8.20;;
17917;SDS011;9084;50.956;3.106;2022-09-12T00:56:02;9.45;;;8.70;;
17917;SDS011;9084;50.956;3.106;2022-09-12T00:58:29;9.40;;;8.60;;
17917;SDS011;9084;50.956;3.106;2022-09-12T01:01:00;8.93;;;8.32;;
17917;SDS011;9084;50.956;3.106;2022-09-12T01:03:27;9.73;;;9.02;;
17917;SDS011;9084;50.956;3.106;2022-09-12T01:06:00;9.95;;;9.07;;
17917;SDS011;9084;50.956;3.106;2022-09-12T01:08:34;10.38;;;9.35;;
17917;SDS011;9084;50.956;3.106;2022-09-12T01:11:01;9.57;;;8.75;;
17917;SDS011;9084;50.956;3.106;2022-09-12T01:13:28;9.15;;;8.40;;
17917;SDS011;9084;50.956;3.106;2022-09-12T01:15:55;9.07;;;8.15;;
17917;SDS011;9084;50.956;3.106;2022-09-12T01:21:19;9.18;;;8.48;;
17917;SDS011;9084;50.956;3.106;2022-09-12T01:24:24;9.60;;;8.75;;
17917;SDS011;9084;50.956;3.106;2022-09-12T01:38:27;7.95;;;7.28;;
17917;SDS011;9084;50.956;3.106;2022-09-12T01:43:36;9.82;;;9.10;;
17917;SDS011;9084;50.956;3.106;2022-09-12T01:46:23;9.40;;;8.70;;
17917;SDS011;9084;50.956;3.106;2022-09-12T01:48:55;10.07;;;9.07;;
17917;SDS011;9084;50.956;3.106;2022-09-12T01:51:35;9.90;;;9.02;;
17917;SDS011;9084;50.956;3.106;2022-09-12T01:54:06;10.05;;;9.25;;
17917;SDS011;9084;50.956;3.106;2022-09-12T01:56:49;10.20;;;9.40;;
17917;SDS011;9084;50.956;3.106;2022-09-12T01:59:29;10.30;;;9.45;;
17917;SDS011;9084;50.956;3.106;2022-09-12T02:02:04;9.73;;;9.02;;
17917;SDS011;9084;50.956;3.106;2022-09-12T02:04:44;10.30;;;9.35;;
17917;SDS011;9084;50.956;3.106;2022-09-12T02:07:37;11.10;;;10.00;;
17917;SDS011;9084;50.956;3.106;2022-09-12T02:10:21;11.38;;;10.27;;
17917;SDS011;9084;50.956;3.106;2022-09-12T02:13:00;10.95;;;10.05;;
17917;SDS011;9084;50.956;3.106;2022-09-12T02:15:39;11.13;;;10.13;;
17917;SDS011;9084;50.956;3.106;2022-09-12T02:18:12;10.68;;;9.77;;
17917;SDS011;9084;50.956;3.106;2022-09-12T02:20:40;11.13;;;10.10;;
17917;SDS011;9084;50.956;3.106;2022-09-12T02:23:10;11.45;;;10.00;;
17917;SDS011;9084;50.956;3.106;2022-09-12T02:25:41;10.02;;;9.13;;
17917;SDS011;9084;50.956;3.106;2022-09-12T02:28:12;10.68;;;9.77;;
17917;SDS011;9084;50.956;3.106;2022-09-12T02:30:47;11.00;;;10.05;;
17917;SDS011;9084;50.956;3.106;2022-09-12T02:33:29;10.95;;;9.95;;
17917;SDS011;9084;50.956;3.106;2022-09-12T02:36:09;11.38;;;10.20;;
17917;SDS011;9084;50.956;3.106;2022-09-12T02:38:49;12.00;;;10.93;;
17917;SDS011;9084;50.956;3.106;2022-09-12T02:41:17;12.18;;;11.18;;
17917;SDS011;9084;50.956;3.106;2022-09-12T02:43:45;11.43;;;10.52;;
17917;SDS011;9084;50.956;3.106;2022-09-12T02:46:21;12.32;;;11.27;;
17917;SDS011;9084;50.956;3.106;2022-09-12T02:48:56;11.73;;;10.73;;
17917;SDS011;9084;50.956;3.106;2022-09-12T02:51:24;12.25;;;11.00;;
17917;SDS011;9084;50.956;3.106;2022-09-12T02:53:53;10.98;;;10.07;;
17917;SDS011;9084;50.956;3.106;2022-09-12T02:56:25;12.20;;;11.02;;
17917;SDS011;9084;50.956;3.106;2022-09-12T02:58:53;12.55;;;11.38;;
17917;SDS011;9084;50.956;3.106;2022-09-12T03:03:56;14.25;;;12.95;;
17917;SDS011;9084;50.956;3.106;2022-09-12T03:09:29;13.27;;;12.18;;
17917;SDS011;9084;50.956;3.106;2022-09-12T03:20:43;13.75;;;12.55;;
17917;SDS011;9084;50.956;3.106;2022-09-12T03:26:06;13.70;;;12.35;;
17917;SDS011;9084;50.956;3.106;2022-09-12T03:28:46;12.48;;;11.27;;
17917;SDS011;9084;50.956;3.106;2022-09-12T03:31:15;14.05;;;12.85;;
17917;SDS011;9084;50.956;3.106;2022-09-12T03:33:42;12.68;;;11.43;;
17917;SDS011;9084;50.956;3.106;2022-09-12T03:36:12;12.32;;;11.23;;
17917;SDS011;9084;50.956;3.106;2022-09-12T03:38:44;13.00;;;11.90;;
17917;SDS011;9084;50.956;3.106;2022-09-12T03:41:09;13.82;;;12.73;;
17917;SDS011;9084;50.956;3.106;2022-09-12T03:43:38;14.00;;;12.75;;
17917;SDS011;9084;50.956;3.106;2022-09-12T03:46:04;12.13;;;11.02;;
17917;SDS011;9084;50.956;3.106;2022-09-12T03:48:30;14.23;;;13.00;;
17917;SDS011;9084;50.956;3.106;2022-09-12T03:50:58;13.88;;;12.68;;
17917;SDS011;9084;50.956;3.106;2022-09-12T03:53:30;14.00;;;12.85;;
17917;SDS011;9084;50.956;3.106;2022-09-12T03:55:58;13.25;;;11.98;;
17917;SDS011;9084;50.956;3.106;2022-09-12T03:58:28;14.48;;;12.27;;
17917;SDS011;9084;50.956;3.106;2022-09-12T04:00:55;13.13;;;11.95;;
17917;SDS011;9084;50.956;3.106;2022-09-12T04:03:21;12.80;;;11.68;;
17917;SDS011;9084;50.956;3.106;2022-09-12T04:05:47;13.27;;;11.98;;
17917;SDS011;9084;50.956;3.106;2022-09-12T04:08:17;12.27;;;11.23;;
17917;SDS011;9084;50.956;3.106;2022-09-12T04:10:45;12.60;;;11.32;;
17917;SDS011;9084;50.956;3.106;2022-09-12T04:13:18;13.63;;;12.23;;
17917;SDS011;9084;50.956;3.106;2022-09-12T04:15:54;13.60;;;12.43;;
17917;SDS011;9084;50.956;3.106;2022-09-12T04:18:24;13.73;;;12.45;;
17917;SDS011;9084;50.956;3.106;2022-09-12T04:20:50;12.73;;;11.63;;
17917;SDS011;9084;50.956;3.106;2022-09-12T04:23:16;14.10;;;12.85;;
17917;SDS011;9084;50.956;3.106;2022-09-12T04:25:42;14.73;;;13.48;;
17917;SDS011;9084;50.956;3.106;2022-09-12T04:28:07;13.30;;;12.30;;
17917;SDS011;9084;50.956;3.106;2022-09-12T04:30:33;14.50;;;13.27;;
17917;SDS011;9084;50.956;3.106;2022-09-12T04:32:59;14.25;;;13.05;;
17917;SDS011;9084;50.956;3.106;2022-09-12T04:35:25;13.38;;;12.30;;
17917;SDS011;9084;50.956;3.106;2022-09-12T04:37:53;13.80;;;12.60;;
17917;SDS011;9084;50.956;3.106;2022-09-12T04:40:21;13.65;;;12.55;;
17917;SDS011;9084;50.956;3.106;2022-09-12T04:42:49;15.35;;;13.93;;
17917;SDS011;9084;50.956;3.106;2022-09-12T04:45:16;13.73;;;12.55;;
17917;SDS011;9084;50.956;3.106;2022-09-12T04:47:42;14.00;;;12.75;;
17917;SDS011;9084;50.956;3.106;2022-09-12T04:50:10;14.63;;;13.10;;
17917;SDS011;9084;50.956;3.106;2022-09-12T04:52:36;14.68;;;13.40;;
17917;SDS011;9084;50.956;3.106;2022-09-12T04:55:02;12.73;;;11.45;;
17917;SDS011;9084;50.956;3.106;2022-09-12T04:57:30;12.85;;;11.65;;
17917;SDS011;9084;50.956;3.106;2022-09-12T04:59:55;13.77;;;12.57;;
17917;SDS011;9084;50.956;3.106;2022-09-12T05:02:21;11.73;;;10.63;;
17917;SDS011;9084;50.956;3.106;2022-09-12T05:04:47;13.85;;;12.70;;
17917;SDS011;9084;50.956;3.106;2022-09-12T05:07:13;13.40;;;12.20;;
17917;SDS011;9084;50.956;3.106;2022-09-12T05:09:41;14.30;;;12.90;;
17917;SDS011;9084;50.956;3.106;2022-09-12T05:12:06;12.35;;;11.20;;
17917;SDS011;9084;50.956;3.106;2022-09-12T05:14:34;13.35;;;11.95;;
17917;SDS011;9084;50.956;3.106;2022-09-12T05:17:01;13.18;;;12.00;;
17917;SDS011;9084;50.956;3.106;2022-09-12T05:19:30;14.40;;;13.05;;
17917;SDS011;9084;50.956;3.106;2022-09-12T05:21:57;14.05;;;12.80;;
17917;SDS011;9084;50.956;3.106;2022-09-12T05:24:26;14.65;;;13.25;;
17917;SDS011;9084;50.956;3.106;2022-09-12T05:26:52;14.70;;;13.40;;
17917;SDS011;9084;50.956;3.106;2022-09-12T05:29:18;13.73;;;12.68;;
17917;SDS011;9084;50.956;3.106;2022-09-12T05:31:43;14.50;;;13.20;;
17917;SDS011;9084;50.956;3.106;2022-09-12T05:34:09;14.07;;;12.68;;
17917;SDS011;9084;50.956;3.106;2022-09-12T05:36:36;13.48;;;12.38;;
17917;SDS011;9084;50.956;3.106;2022-09-12T05:39:02;14.23;;;12.90;;
17917;SDS011;9084;50.956;3.106;2022-09-12T05:41:31;13.50;;;12.25;;
17917;SDS011;9084;50.956;3.106;2022-09-12T05:44:02;12.93;;;11.70;;
17917;SDS011;9084;50.956;3.106;2022-09-12T05:46:34;13.60;;;12.55;;
17917;SDS011;9084;50.956;3.106;2022-09-12T05:49:04;12.60;;;11.50;;
17917;SDS011;9084;50.956;3.106;2022-09-12T05:51:32;11.65;;;10.65;;
17917;SDS011;9084;50.956;3.106;2022-09-12T05:54:05;11.90;;;10.80;;
17917;SDS011;9084;50.956;3.106;2022-09-12T05:56:33;13.00;;;11.90;;
17917;SDS011;9084;50.956;3.106;2022-09-12T05:59:04;11.65;;;10.55;;
17917;SDS011;9084;50.956;3.106;2022-09-12T06:01:32;10.75;;;9.77;;
17917;SDS011;9084;50.956;3.106;2022-09-12T06:04:03;12.77;;;11.57;;
17917;SDS011;9084;50.956;3.106;2022-09-12T06:06:30;12.43;;;11.35;;
17917;SDS011;9084;50.956;3.106;2022-09-12T06:09:00;12.48;;;11.27;;
17917;SDS011;9084;50.956;3.106;2022-09-12T06:11:32;10.77;;;9.88;;
17917;SDS011;9084;50.956;3.106;2022-09-12T06:13:59;12.57;;;11.48;;
17917;SDS011;9084;50.956;3.106;2022-09-12T06:16:26;12.40;;;11.05;;
17917;SDS011;9084;50.956;3.106;2022-09-12T06:18:55;11.45;;;10.35;;
17917;SDS011;9084;50.956;3.106;2022-09-12T06:21:22;10.27;;;9.48;;
17917;SDS011;9084;50.956;3.106;2022-09-12T06:23:50;10.43;;;9.43;;
17917;SDS011;9084;50.956;3.106;2022-09-12T06:26:18;11.98;;;10.80;;
17917;SDS011;9084;50.956;3.106;2022-09-12T06:28:47;11.32;;;10.18;;
17917;SDS011;9084;50.956;3.106;2022-09-12T06:31:15;11.23;;;10.00;;
17917;SDS011;9084;50.956;3.106;2022-09-12T06:33:43;11.27;;;9.90;;
17917;SDS011;9084;50.956;3.106;2022-09-12T06:36:11;9.30;;;8.50;;
17917;SDS011;9084;50.956;3.106;2022-09-12T06:38:39;10.05;;;9.18;;
17917;SDS011;9084;50.956;3.106;2022-09-12T06:41:05;10.35;;;9.23;;
17917;SDS011;9084;50.956;3.106;2022-09-12T06:43:35;10.80;;;9.80;;
17917;SDS011;9084;50.956;3.106;2022-09-12T06:46:01;12.68;;;9.48;;
17917;SDS011;9084;50.956;3.106;2022-09-12T06:48:27;10.18;;;9.20;;
17917;SDS011;9084;50.956;3.106;2022-09-12T06:51:00;11.60;;;8.73;;
17917;SDS011;9084;50.956;3.106;2022-09-12T06:53:38;10.43;;;9.43;;
17917;SDS011;9084;50.956;3.106;2022-09-12T06:58:31;9.50;;;8.65;;
17917;SDS011;9084;50.956;3.106;2022-09-12T07:03:34;11.57;;;9.32;;
17917;SDS011;9084;50.956;3.106;2022-09-12T07:06:02;9.68;;;8.77;;
17917;SDS011;9084;50.956;3.106;2022-09-12T07:08:30;9.00;;;8.20;;
17917;SDS011;9084;50.956;3.106;2022-09-12T07:11:20;10.07;;;8.77;;
17917;SDS011;9084;50.956;3.106;2022-09-12T07:13:51;8.82;;;8.02;;
17917;SDS011;9084;50.956;3.106;2022-09-12T07:16:18;9.60;;;8.50;;
17917;SDS011;9084;50.956;3.106;2022-09-12T07:18:48;10.82;;;9.18;;
17917;SDS011;9084;50.956;3.106;2022-09-12T07:21:18;8.38;;;7.68;;
17917;SDS011;9084;50.956;3.106;2022-09-12T07:23:44;8.82;;;7.97;;
17917;SDS011;9084;50.956;3.106;2022-09-12T07:26:11;8.68;;;7.88;;
17917;SDS011;9084;50.956;3.106;2022-09-12T07:28:38;8.43;;;7.70;;
17917;SDS011;9084;50.956;3.106;2022-09-12T07:31:05;8.68;;;7.88;;
17917;SDS011;9084;50.956;3.106;2022-09-12T07:33:31;8.13;;;7.43;;
17917;SDS011;9084;50.956;3.106;2022-09-12T07:36:00;8.95;;;8.00;;
17917;SDS011;9084;50.956;3.106;2022-09-12T07:38:29;8.35;;;7.55;;
17917;SDS011;9084;50.956;3.106;2022-09-12T07:40:55;8.65;;;7.95;;
17917;SDS011;9084;50.956;3.106;2022-09-12T07:43:22;8.13;;;7.40;;
17917;SDS011;9084;50.956;3.106;2022-09-12T07:45:53;7.90;;;7.15;;
17917;SDS011;9084;50.956;3.106;2022-09-12T07:48:19;7.45;;;6.60;;
17917;SDS011;9084;50.956;3.106;2022-09-12T07:50:45;7.15;;;6.53;;
17917;SDS011;9084;50.956;3.106;2022-09-12T07:53:40;7.05;;;6.38;;
17917;SDS011;9084;50.956;3.106;2022-09-12T07:56:07;7.18;;;6.50;;
17917;SDS011;9084;50.956;3.106;2022-09-12T07:58:54;6.90;;;6.40;;
17917;SDS011;9084;50.956;3.106;2022-09-12T08:01:21;6.75;;;6.15;;
17917;SDS011;9084;50.956;3.106;2022-09-12T08:03:52;7.25;;;6.65;;
17917;SDS011;9084;50.956;3.106;2022-09-12T08:06:21;6.53;;;6.03;;
17917;SDS011;9084;50.956;3.106;2022-09-12T08:08:48;7.18;;;6.47;;
17917;SDS011;9084;50.956;3.106;2022-09-12T08:11:17;6.70;;;6.13;;
17917;SDS011;9084;50.956;3.106;2022-09-12T08:13:44;6.45;;;5.90;;
17917;SDS011;9084;50.956;3.106;2022-09-12T08:16:19;7.03;;;6.32;;
17917;SDS011;9084;50.956;3.106;2022-09-12T08:18:47;6.68;;;6.07;;
17917;SDS011;9084;50.956;3.106;2022-09-12T08:21:15;6.43;;;5.93;;
17917;SDS011;9084;50.956;3.106;2022-09-12T08:23:45;7.53;;;5.75;;
17917;SDS011;9084;50.956;3.106;2022-09-12T08:26:12;7.20;;;6.60;;
17917;SDS011;9084;50.956;3.106;2022-09-12T08:28:38;6.47;;;5.97;;
17917;SDS011;9084;50.956;3.106;2022-09-12T08:31:11;6.95;;;5.70;;
17917;SDS011;9084;50.956;3.106;2022-09-12T08:33:41;6.63;;;6.00;;
17917;SDS011;9084;50.956;3.106;2022-09-12T08:36:10;6.13;;;5.65;;
17917;SDS011;9084;50.956;3.106;2022-09-12T08:38:39;6.78;;;6.18;;
17917;SDS011;9084;50.956;3.106;2022-09-12T08:46:35;6.28;;;5.68;;
17917;SDS011;9084;50.956;3.106;2022-09-12T08:49:09;6.07;;;5.57;;
17917;SDS011;9084;50.956;3.106;2022-09-12T08:51:37;5.97;;;5.38;;
17917;SDS011;9084;50.956;3.106;2022-09-12T08:54:03;6.15;;;5.68;;
17917;SDS011;9084;50.956;3.106;2022-09-12T08:56:47;5.93;;;5.13;;
17917;SDS011;9084;50.956;3.106;2022-09-12T08:59:14;7.47;;;5.47;;
17917;SDS011;9084;50.956;3.106;2022-09-12T09:01:41;5.82;;;5.32;;
17917;SDS011;9084;50.956;3.106;2022-09-12T09:07:07;5.35;;;4.85;;
17917;SDS011;9084;50.956;3.106;2022-09-12T09:18:00;5.82;;;5.18;;
17917;SDS011;9084;50.956;3.106;2022-09-12T09:20:34;5.03;;;4.40;;
17917;SDS011;9084;50.956;3.106;2022-09-12T09:28:03;5.75;;;5.28;;
17917;SDS011;9084;50.956;3.106;2022-09-12T09:30:35;4.93;;;4.53;;
17917;SDS011;9084;50.956;3.106;2022-09-12T09:33:02;7.47;;;4.72;;
17917;SDS011;9084;50.956;3.106;2022-09-12T09:38:44;5.45;;;4.70;;
17917;SDS011;9084;50.956;3.106;2022-09-12T09:41:19;5.80;;;4.32;;
17917;SDS011;9084;50.956;3.106;2022-09-12T09:43:59;7.90;;;3.92;;
17917;SDS011;9084;50.956;3.106;2022-09-12T09:46:27;4.68;;;4.28;;
17917;SDS011;9084;50.956;3.106;2022-09-12T09:48:53;4.22;;;3.03;;
17917;SDS011;9084;50.956;3.106;2022-09-12T09:51:26;4.60;;;3.60;;
17917;SDS011;9084;50.956;3.106;2022-09-12T09:54:01;3.50;;;3.20;;
17917;SDS011;9084;50.956;3.106;2022-09-12T09:56:35;3.60;;;3.30;;
17917;SDS011;9084;50.956;3.106;2022-09-12T09:59:27;3.22;;;3.00;;
17917;SDS011;9084;50.956;3.106;2022-09-12T10:04:31;5.00;;;3.17;;
17917;SDS011;9084;50.956;3.106;2022-09-12T10:06:59;3.85;;;3.47;;
17917;SDS011;9084;50.956;3.106;2022-09-12T10:09:32;3.78;;;3.25;;
17917;SDS011;9084;50.956;3.106;2022-09-12T10:11:59;4.70;;;3.05;;
17917;SDS011;9084;50.956;3.106;2022-09-12T10:14:43;3.72;;;3.08;;
17917;SDS011;9084;50.956;3.106;2022-09-12T10:17:38;4.85;;;3.05;;
17917;SDS011;9084;50.956;3.106;2022-09-12T10:20:27;2.78;;;2.47;;
17917;SDS011;9084;50.956;3.106;2022-09-12T10:22:54;2.97;;;2.40;;
17917;SDS011;9084;50.956;3.106;2022-09-12T10:25:23;2.90;;;2.50;;
17917;SDS011;9084;50.956;3.106;2022-09-12T10:27:55;2.50;;;2.30;;
17917;SDS011;9084;50.956;3.106;2022-09-12T10:30:23;2.60;;;2.20;;
17917;SDS011;9084;50.956;3.106;2022-09-12T10:32:52;2.78;;;2.30;;
17917;SDS011;9084;50.956;3.106;2022-09-12T10:35:24;3.22;;;2.45;;
17917;SDS011;9084;50.956;3.106;2022-09-12T10:37:59;2.13;;;1.88;;
17917;SDS011;9084;50.956;3.106;2022-09-12T10:40:35;1.65;;;1.40;;
17917;SDS011;9084;50.956;3.106;2022-09-12T10:45:50;2.22;;;1.40;;
17917;SDS011;9084;50.956;3.106;2022-09-12T10:48:30;2.03;;;1.50;;
17917;SDS011;9084;50.956;3.106;2022-09-12T10:51:00;1.77;;;1.45;;
17917;SDS011;9084;50.956;3.106;2022-09-12T10:53:27;2.20;;;2.00;;
17917;SDS011;9084;50.956;3.106;2022-09-12T10:58:52;5.38;;;1.95;;
17917;SDS011;9084;50.956;3.106;2022-09-12T11:15:59;3.65;;;2.00;;
17917;SDS011;9084;50.956;3.106;2022-09-12T11:18:56;2.10;;;1.73;;
17917;SDS011;9084;50.956;3.106;2022-09-12T11:29:57;1.50;;;1.40;;
17917;SDS011;9084;50.956;3.106;2022-09-12T11:35:17;1.85;;;1.63;;
17917;SDS011;9084;50.956;3.106;2022-09-12T11:40:54;1.58;;;1.45;;
17917;SDS011;9084;50.956;3.106;2022-09-12T11:49:04;2.22;;;1.50;;
17917;SDS011;9084;50.956;3.106;2022-09-12T12:00:18;2.00;;;1.48;;
17917;SDS011;9084;50.956;3.106;2022-09-12T12:05:59;1.40;;;1.30;;
17917;SDS011;9084;50.956;3.106;2022-09-12T12:08:31;1.80;;;1.40;;
17917;SDS011;9084;50.956;3.106;2022-09-12T12:11:04;7.07;;;1.40;;
17917;SDS011;9084;50.956;3.106;2022-09-12T12:15:59;1.48;;;1.27;;
17917;SDS011;9084;50.956;3.106;2022-09-12T12:18:39;2.80;;;1.30;;
17917;SDS011;9084;50.956;3.106;2022-09-12T12:21:18;1.40;;;1.23;;
17917;SDS011;9084;50.956;3.106;2022-09-12T12:42:55;2.28;;;1.30;;
17917;SDS011;9084;50.956;3.106;2022-09-12T12:48:10;2.58;;;1.15;;
17917;SDS011;9084;50.956;3.106;2022-09-12T12:50:40;3.45;;;1.25;;
17917;SDS011;9084;50.956;3.106;2022-09-12T12:53:20;1.85;;;1.15;;
17917;SDS011;9084;50.956;3.106;2022-09-12T12:55:50;1.65;;;1.30;;
17917;SDS011;9084;50.956;3.106;2022-09-12T12:58:34;1.10;;;0.90;;
17917;SDS011;9084;50.956;3.106;2022-09-12T13:01:05;1.15;;;0.82;;
17917;SDS011;9084;50.956;3.106;2022-09-12T13:03:39;1.42;;;1.00;;
17917;SDS011;9084;50.956;3.106;2022-09-12T13:06:23;2.92;;;1.27;;
17917;SDS011;9084;50.956;3.106;2022-09-12T13:09:05;2.17;;;1.30;;
17917;SDS011;9084;50.956;3.106;2022-09-12T13:11:36;1.60;;;1.00;;
17917;SDS011;9084;50.956;3.106;2022-09-12T13:14:04;1.58;;;1.27;;
17917;SDS011;9084;50.956;3.106;2022-09-12T13:19:03;3.40;;;1.20;;
17917;SDS011;9084;50.956;3.106;2022-09-12T13:21:37;1.20;;;1.10;;
17917;SDS011;9084;50.956;3.106;2022-09-12T13:24:04;3.53;;;1.20;;
17917;SDS011;9084;50.956;3.106;2022-09-12T13:26:40;1.90;;;1.65;;
17917;SDS011;9084;50.956;3.106;2022-09-12T13:31:39;1.90;;;1.40;;
17917;SDS011;9084;50.956;3.106;2022-09-12T13:34:06;1.70;;;1.23;;
17917;SDS011;9084;50.956;3.106;2022-09-12T13:36:53;1.33;;;1.23;;
17917;SDS011;9084;50.956;3.106;2022-09-12T13:45:00;1.33;;;1.00;;
17917;SDS011;9084;50.956;3.106;2022-09-12T13:47:42;1.38;;;1.20;;
17917;SDS011;9084;50.956;3.106;2022-09-12T13:53:10;2.45;;;1.45;;
17917;SDS011;9084;50.956;3.106;2022-09-12T13:55:42;3.08;;;1.40;;
17917;SDS011;9084;50.956;3.106;2022-09-12T13:58:16;4.55;;;1.30;;
17917;SDS011;9084;50.956;3.106;2022-09-12T14:03:40;2.33;;;1.55;;
17917;SDS011;9084;50.956;3.106;2022-09-12T14:06:26;1.50;;;1.35;;
17917;SDS011;9084;50.956;3.106;2022-09-12T14:08:52;1.67;;;1.58;;
17917;SDS011;9084;50.956;3.106;2022-09-12T14:11:26;1.10;;;1.00;;
17917;SDS011;9084;50.956;3.106;2022-09-12T14:13:54;2.97;;;1.42;;
17917;SDS011;9084;50.956;3.106;2022-09-12T14:16:25;2.08;;;1.55;;
17917;SDS011;9084;50.956;3.106;2022-09-12T14:18:52;3.13;;;1.50;;
17917;SDS011;9084;50.956;3.106;2022-09-12T14:24:15;2.25;;;1.48;;
17917;SDS011;9084;50.956;3.106;2022-09-12T14:26:41;1.50;;;1.40;;
17917;SDS011;9084;50.956;3.106;2022-09-12T14:29:12;1.80;;;1.30;;
17917;SDS011;9084;50.956;3.106;2022-09-12T14:31:40;3.08;;;1.20;;
17917;SDS011;9084;50.956;3.106;2022-09-12T14:34:17;1.20;;;1.10;;
17917;SDS011;9084;50.956;3.106;2022-09-12T14:36:50;2.17;;;1.42;;
17917;SDS011;9084;50.956;3.106;2022-09-12T14:39:25;4.55;;;2.13;;
17917;SDS011;9084;50.956;3.106;2022-09-12T14:44:55;2.15;;;1.25;;
17917;SDS011;9084;50.956;3.106;2022-09-12T14:47:27;2.72;;;1.75;;
17917;SDS011;9084;50.956;3.106;2022-09-12T14:50:01;1.90;;;1.33;;
17917;SDS011;9084;50.956;3.106;2022-09-12T14:52:40;4.10;;;1.27;;
17917;SDS011;9084;50.956;3.106;2022-09-12T14:55:22;1.85;;;1.17;;
17917;SDS011;9084;50.956;3.106;2022-09-12T15:00:53;3.53;;;1.17;;
17917;SDS011;9084;50.956;3.106;2022-09-12T15:03:33;1.15;;;1.05;;
17917;SDS011;9084;50.956;3.106;2022-09-12T15:05:59;4.88;;;1.10;;
17917;SDS011;9084;50.956;3.106;2022-09-12T15:08:29;1.45;;;1.02;;
17917;SDS011;9084;50.956;3.106;2022-09-12T15:10:57;1.73;;;0.98;;
17917;SDS011;9084;50.956;3.106;2022-09-12T15:13:24;1.38;;;1.27;;
17917;SDS011;9084;50.956;3.106;2022-09-12T15:15:55;1.30;;;0.80;;
17917;SDS011;9084;50.956;3.106;2022-09-12T15:18:25;2.10;;;0.95;;
17917;SDS011;9084;50.956;3.106;2022-09-12T15:20:56;1.13;;;0.88;;
17917;SDS011;9084;50.956;3.106;2022-09-12T15:25:55;1.85;;;1.27;;
17917;SDS011;9084;50.956;3.106;2022-09-12T15:28:21;1.98;;;1.20;;
17917;SDS011;9084;50.956;3.106;2022-09-12T15:30:49;3.13;;;1.00;;
17917;SDS011;9084;50.956;3.106;2022-09-12T15:33:20;4.65;;;1.20;;
17917;SDS011;9084;50.956;3.106;2022-09-12T15:35:48;1.73;;;1.20;;
17917;SDS011;9084;50.956;3.106;2022-09-12T15:38:14;1.30;;;0.85;;
17917;SDS011;9084;50.956;3.106;2022-09-12T15:40:42;2.08;;;1.25;;
17917;SDS011;9084;50.956;3.106;2022-09-12T15:43:12;2.83;;;1.25;;
17917;SDS011;9084;50.956;3.106;2022-09-12T15:45:40;1.40;;;0.90;;
17917;SDS011;9084;50.956;3.106;2022-09-12T15:48:07;1.05;;;0.95;;
17917;SDS011;9084;50.956;3.106;2022-09-12T15:50:35;1.60;;;0.90;;
17917;SDS011;9084;50.956;3.106;2022-09-12T15:53:07;2.58;;;1.00;;
17917;SDS011;9084;50.956;3.106;2022-09-12T15:55:37;1.73;;;0.88;;
17917;SDS011;9084;50.956;3.106;2022-09-12T15:58:05;3.67;;;1.13;;
17917;SDS011;9084;50.956;3.106;2022-09-12T16:00:32;1.10;;;1.00;;
17917;SDS011;9084;50.956;3.106;2022-09-12T16:02:57;1.20;;;0.90;;
17917;SDS011;9084;50.956;3.106;2022-09-12T16:05:26;2.60;;;0.90;;
17917;SDS011;9084;50.956;3.106;2022-09-12T16:07:52;0.82;;;0.77;;
17917;SDS011;9084;50.956;3.106;2022-09-12T16:10:23;1.92;;;1.10;;
17917;SDS011;9084;50.956;3.106;2022-09-12T16:12:52;2.22;;;0.88;;
17917;SDS011;9084;50.956;3.106;2022-09-12T16:15:21;3.20;;;0.73;;
17917;SDS011;9084;50.956;3.106;2022-09-12T16:17:49;0.82;;;0.70;;
17917;SDS011;9084;50.956;3.106;2022-09-12T16:20:15;1.60;;;0.68;;
17917;SDS011;9084;50.956;3.106;2022-09-12T16:22:43;0.93;;;0.73;;
17917;SDS011;9084;50.956;3.106;2022-09-12T16:25:11;1.02;;;0.57;;
17917;SDS011;9084;50.956;3.106;2022-09-12T16:27:36;1.02;;;0.77;;
17917;SDS011;9084;50.956;3.106;2022-09-12T16:30:06;1.48;;;0.63;;
17917;SDS011;9084;50.956;3.106;2022-09-12T16:32:37;1.40;;;0.90;;
17917;SDS011;9084;50.956;3.106;2022-09-12T16:35:03;1.98;;;0.70;;
17917;SDS011;9084;50.956;3.106;2022-09-12T16:37:32;2.22;;;0.80;;
17917;SDS011;9084;50.956;3.106;2022-09-12T16:39:59;0.88;;;0.70;;
17917;SDS011;9084;50.956;3.106;2022-09-12T16:42:24;2.28;;;0.70;;
17917;SDS011;9084;50.956;3.106;2022-09-12T16:44:53;1.48;;;0.60;;
17917;SDS011;9084;50.956;3.106;2022-09-12T16:47:19;0.82;;;0.57;;
17917;SDS011;9084;50.956;3.106;2022-09-12T16:49:45;1.70;;;0.88;;
17917;SDS011;9084;50.956;3.106;2022-09-12T16:52:11;0.65;;;0.60;;
17917;SDS011;9084;50.956;3.106;2022-09-12T16:54:40;1.73;;;0.65;;
17917;SDS011;9084;50.956;3.106;2022-09-12T16:57:07;0.77;;;0.77;;
17917;SDS011;9084;50.956;3.106;2022-09-12T16:59:35;1.48;;;1.13;;
17917;SDS011;9084;50.956;3.106;2022-09-12T17:02:04;2.20;;;0.75;;
17917;SDS011;9084;50.956;3.106;2022-09-12T17:04:30;1.35;;;0.75;;
17917;SDS011;9084;50.956;3.106;2022-09-12T17:06:55;0.55;;;0.55;;
17917;SDS011;9084;50.956;3.106;2022-09-12T17:09:23;0.60;;;0.60;;
17917;SDS011;9084;50.956;3.106;2022-09-12T17:11:49;1.30;;;0.73;;
17917;SDS011;9084;50.956;3.106;2022-09-12T17:14:17;0.60;;;0.60;;
17917;SDS011;9084;50.956;3.106;2022-09-12T17:16:45;1.48;;;0.60;;
17917;SDS011;9084;50.956;3.106;2022-09-12T17:19:13;1.20;;;0.73;;
17917;SDS011;9084;50.956;3.106;2022-09-12T17:21:48;2.72;;;0.75;;
17917;SDS011;9084;50.956;3.106;2022-09-12T17:24:17;0.80;;;0.65;;
17917;SDS011;9084;50.956;3.106;2022-09-12T17:26:44;1.83;;;0.80;;
17917;SDS011;9084;50.956;3.106;2022-09-12T17:29:13;1.27;;;0.63;;
17917;SDS011;9084;50.956;3.106;2022-09-12T17:31:39;0.77;;;0.57;;
17917;SDS011;9084;50.956;3.106;2022-09-12T17:34:06;2.05;;;0.70;;
17917;SDS011;9084;50.956;3.106;2022-09-12T17:36:32;1.02;;;0.80;;
17917;SDS011;9084;50.956;3.106;2022-09-12T17:39:00;2.38;;;0.70;;
17917;SDS011;9084;50.956;3.106;2022-09-12T17:41:27;1.27;;;0.60;;
17917;SDS011;9084;50.956;3.106;2022-09-12T17:43:59;1.52;;;0.80;;
17917;SDS011;9084;50.956;3.106;2022-09-12T17:46:34;1.60;;;0.70;;
17917;SDS011;9084;50.956;3.106;2022-09-12T17:49:05;0.75;;;0.75;;
17917;SDS011;9084;50.956;3.106;2022-09-12T17:51:32;1.38;;;0.85;;
17917;SDS011;9084;50.956;3.106;2022-09-12T17:54:06;1.73;;;0.93;;
17917;SDS011;9084;50.956;3.106;2022-09-12T17:56:36;1.05;;;0.90;;
17917;SDS011;9084;50.956;3.106;2022-09-12T17:59:03;1.08;;;0.95;;
17917;SDS011;9084;50.956;3.106;2022-09-12T18:01:31;1.27;;;0.82;;
17917;SDS011;9084;50.956;3.106;2022-09-12T18:04:16;1.50;;;0.90;;